Weather observations for the past three days for
Fond Du Lac County Airport
Imperial (Metric)
Date Time (cdt) Wind (mph) Vis. (mi.) Weather Sky Cond. Temperature (ºF) Relative Humidity Wind Chill (°F) Heat Index (°F) Pressure Precipitation (in)
Air Dwpt 6 hour altimeter (in) sea level (mb) 1 hr 3 hr 6 hr
Max. Min.
06 03:53 W 6 10.00 Overcast OVC070 39.9 28 63% 36 29.86 1011.8
06 02:53 W 3 10.00 Overcast OVC075 36 28.9 76% 29.85 1011.4
06 01:53 SW 3 10.00 A Few Clouds FEW080 32 28.9 88% 29.85 1011.4
06 00:53 Calm 10.00 Fair CLR 34 28.9 51.1 33.1 82% 29.86 1011.5
05 23:53 W 3 10.00 Fair CLR 35.1 27 72% 29.86 1011.6
05 22:53 NW 3 10.00 Fair CLR 41 24.1 51% 29.85 1011.3
05 21:53 NW 5 10.00 Fair CLR 43 24.1 47% 41 29.85 1011.3
05 20:53 NW 10 10.00 Fair CLR 46 23 40% 42 29.83 1010.7
05 19:53 NW 12 10.00 Fair CLR 48 21.9 36% 44 29.81 1009.8
05 18:53 NW 16 10.00 A Few Clouds FEW080 51.1 23 55.9 51.1 33% 29.8 1009.4
05 17:53 NW 17 G 33 10.00 Partly Cloudy SCT080 54 23 30% 29.78 1008.7
05 16:53 W 14 G 23 10.00 Fair CLR 55 21 26% 29.77 1008.4
05 15:53 W 12 G 32 10.00 Fair CLR 54 21 28% 29.77 1008.5
05 14:53 W 18 G 30 10.00 Fair CLR 55 23 29% 29.77 1008.4
05 13:53 W 12 G 29 10.00 Fair CLR 54 21.9 29% 29.77 1008.2
05 12:53 W 18 G 30 10.00 Fair CLR 53.1 23 54 42.1 31% 29.77 1008.2
05 11:53 W 16 G 30 10.00 Partly Cloudy SCT065 52 21.9 31% 29.76 1007.9
05 10:53 W 17 G 26 10.00 Partly Cloudy SCT060 51.1 25 36% 29.75 1007.6
05 09:53 W 14 G 23 10.00 A Few Clouds FEW050 48.9 28 44% 44 29.75 1007.8
05 08:53 W 10 10.00 Fair CLR 48 28.9 48% 44 29.76 1007.9
05 07:53 W 13 10.00 Fair CLR 46 28 50% 41 29.76 1008.0
05 06:53 SW 6 10.00 Fair CLR 42.1 28.9 48.9 39 60% 39 29.73 1006.7
05 05:53 SW 5 10.00 Fair CLR 39.9 26.1 58% 37 29.71 1006.3
05 04:53 SW 5 10.00 Fair CLR 41 25 53% 38 29.7 1005.8
05 03:53 W 6 10.00 Fair CLR 42.1 25 51% 39 29.68 1005.1
05 02:53 NW 15 G 22 10.00 Fair CLR 45 25 46% 39 29.65 1004.1
05 01:53 NW 13 10.00 Fair CLR 46.9 26.1 44% 42 29.64 1003.8
05 00:53 NW 17 10.00 Fair CLR 48.9 28 66 48.9 44% 43 29.64 1003.5
04 23:53 NW 14 10.00 Fair CLR 52 30 43% 29.59 1001.8
04 22:53 NW 12 G 22 10.00 Fair CLR 53.1 30.9 43% 29.57 1001.1
04 21:53 NW 10 10.00 Fair CLR 57 30 36% 29.51 999.2
04 20:53 W 18 G 29 10.00 Fair CLR 61 28.9 30% 29.48 998.3
04 19:53 W 13 10.00 A Few Clouds FEW120 62.1 35.1 37% 29.44 996.9
04 18:53 W 14 G 25 10.00 Fair CLR 66 35.1 77 66 32% 29.42 996.1
04 17:53 NW 13 G 31 10.00 Partly Cloudy SCT120 72 41 33% 29.4 995.5
04 16:53 W 15 G 24 10.00 Light Rain BKN095 75 42.1 31% 77 29.38 994.7
04 15:53 SW 17 G 32 10.00 Mostly Cloudy SCT100 BKN120 77 41 28% 78 29.37 994.5
04 14:53 SW 20 G 33 10.00 Mostly Cloudy SCT100 BKN120 75 41 29% 77 29.38 994.8
04 13:53 SW 18 G 33 10.00 Mostly Cloudy BKN100 73.9 39 28% 29.39 995.0
04 12:53 SW 17 G 38 10.00 Fair CLR 75.9 39.9 75.9 50 27% 77 29.39 995.2
04 11:53 SW 25 G 38 10.00 Fair and Breezy CLR 73.9 39 28% 29.42 996.1
04 10:53 SW 17 G 33 10.00 Fair CLR 71.1 39 31% 29.44 996.7
04 09:53 SW 22 G 31 10.00 Fair and Breezy CLR 66.9 39 36% 29.47 997.8
04 08:53 SW 16 G 28 10.00 Fair CLR 61 39 44% 29.5 998.7
04 07:53 SW 13 G 22 10.00 Fair CLR 57 37.9 49% 29.52 999.6
04 06:53 S 9 10.00 Fair CLR 50 37.9 53.1 44.1 63% 47 29.53 999.9
04 05:53 S 8 10.00 Fair CLR 44.1 36 73% 40 29.53 1000.2
04 04:53 S 6 10.00 Fair CLR 44.1 36 73% 41 29.55 1000.9
04 03:53 S 7 10.00 Fair CLR 45 37 74% 42 29.57 1001.5
04 02:53 SW 8 10.00 Fair CLR 50 37.9 63% 47 29.59 1002.0
04 01:53 SW 6 10.00 Fair CLR 51.1 36 56% 29.6 1002.5
04 00:53 SW 7 10.00 Fair CLR 52 36 66.9 52 55% 29.62 1003.1
03 23:53 SW 7 10.00 Fair CLR 53.1 37.9 57% 29.63 1003.4
03 22:53 SW 7 10.00 Fair CLR 55.9 39.9 55% 29.63 1003.6
03 21:53 SW 5 10.00 Fair CLR 57 39.9 53% 29.64 1003.7
03 20:53 SW 6 10.00 Fair CLR 59 41 51% 29.62 1003.1
03 19:53 SW 6 10.00 Fair CLR 63 41 45% 29.61 1002.9
03 18:53 SW 10 10.00 Fair CLR 66 41 68 63 40% 29.61 1002.6
03 17:53 SW 15 G 22 10.00 Fair CLR 66.9 39.9 37% 29.61 1002.7
03 16:53 SW 13 G 25 10.00 Fair CLR 68 39.9 36% 29.62 1003.2
03 15:53 SW 18 G 29 10.00 Fair CLR 66.9 39.9 37% 29.63 1003.5
03 14:53 SW 17 G 29 10.00 A Few Clouds FEW060 64.9 39.9 40% 29.66 1004.4
03 13:53 SW 18 G 35 10.00 A Few Clouds FEW100 64 39.9 41% 29.68 1005.1
03 12:53 SW 20 G 37 10.00 Fair CLR 63 41 63 48 45% 29.7 1006.0
03 11:53 S 15 G 31 10.00 Fair CLR 60.1 44.1 56% 29.74 1007.2
03 10:53 SW 18 G 32 10.00 Overcast OVC075 55 41 59% 29.76 1008.0
03 09:53 SW 17 G 30 10.00 Overcast OVC090 55.9 39 53% 29.77 1008.4
03 08:53 SW 15 G 26 10.00 A Few Clouds FEW085 54 36 51% 29.78 1008.8
03 07:53 SW 13 G 22 10.00 Overcast OVC090 48.9 33.1 55% 44 29.8 1009.2
03 06:53 SW 13 10.00 Overcast SCT090 OVC110 48 33.1 48.9 48 56% 43 29.8 1009.4
03 05:53 S 13 10.00 Overcast OVC100 48 30.9 52% 43 29.81 1009.6
03 04:53 SW 10 10.00 Overcast OVC085 48 30.9 52% 44 29.83 1010.3
Date Time (cdt) Wind (mph) Vis. (mi.) Weather Sky Cond. Air Dwpt Max. Min. Relative Humidity Wind Chill (°F) Heat Index (°F) altimeter (in) sea level (mb) 1 hr 3 hr 6 hr
6 hour
Temperature (ºF) Pressure Precipitation (in)